sensor_id;sensor_type;location;lat;lon;timestamp;P1;durP1;ratioP1;P2;durP2;ratioP2
4375;SDS011;2202;50.866;12.750;2022-09-14T00:02:05;9.43;;;7.00;;
4375;SDS011;2202;50.866;12.750;2022-09-14T00:04:32;9.70;;;6.93;;
4375;SDS011;2202;50.866;12.750;2022-09-14T00:06:59;8.80;;;7.43;;
4375;SDS011;2202;50.866;12.750;2022-09-14T00:09:26;9.30;;;7.07;;
4375;SDS011;2202;50.866;12.750;2022-09-14T00:11:53;12.93;;;9.03;;
4375;SDS011;2202;50.866;12.750;2022-09-14T00:14:20;9.40;;;6.53;;
4375;SDS011;2202;50.866;12.750;2022-09-14T00:16:47;8.57;;;6.67;;
4375;SDS011;2202;50.866;12.750;2022-09-14T00:19:18;7.43;;;6.47;;
4375;SDS011;2202;50.866;12.750;2022-09-14T00:21:48;7.93;;;7.10;;
4375;SDS011;2202;50.866;12.750;2022-09-14T00:24:16;8.97;;;7.00;;
4375;SDS011;2202;50.866;12.750;2022-09-14T00:26:44;8.10;;;7.17;;
4375;SDS011;2202;50.866;12.750;2022-09-14T00:29:11;9.83;;;7.67;;
4375;SDS011;2202;50.866;12.750;2022-09-14T00:31:38;9.33;;;7.23;;
4375;SDS011;2202;50.866;12.750;2022-09-14T00:34:06;10.40;;;7.30;;
4375;SDS011;2202;50.866;12.750;2022-09-14T00:36:38;9.50;;;7.27;;
4375;SDS011;2202;50.866;12.750;2022-09-14T00:39:06;8.97;;;7.97;;
4375;SDS011;2202;50.866;12.750;2022-09-14T00:41:34;10.23;;;8.33;;
4375;SDS011;2202;50.866;12.750;2022-09-14T00:44:03;8.37;;;7.47;;
4375;SDS011;2202;50.866;12.750;2022-09-14T00:46:34;8.37;;;7.50;;
4375;SDS011;2202;50.866;12.750;2022-09-14T00:49:03;9.90;;;7.40;;
4375;SDS011;2202;50.866;12.750;2022-09-14T00:51:32;10.63;;;8.37;;
4375;SDS011;2202;50.866;12.750;2022-09-14T00:54:03;10.90;;;6.97;;
4375;SDS011;2202;50.866;12.750;2022-09-14T00:56:32;8.87;;;7.10;;
4375;SDS011;2202;50.866;12.750;2022-09-14T00:59:00;9.17;;;8.27;;
4375;SDS011;2202;50.866;12.750;2022-09-14T01:01:31;8.20;;;7.30;;
4375;SDS011;2202;50.866;12.750;2022-09-14T01:03:58;8.73;;;7.27;;
4375;SDS011;2202;50.866;12.750;2022-09-14T01:06:27;8.17;;;6.80;;
4375;SDS011;2202;50.866;12.750;2022-09-14T01:09:04;8.90;;;7.87;;
4375;SDS011;2202;50.866;12.750;2022-09-14T01:11:42;9.47;;;7.97;;
4375;SDS011;2202;50.866;12.750;2022-09-14T01:14:24;8.90;;;8.00;;
4375;SDS011;2202;50.866;12.750;2022-09-14T01:16:58;10.13;;;7.60;;
4375;SDS011;2202;50.866;12.750;2022-09-14T01:19:32;9.50;;;8.27;;
4375;SDS011;2202;50.866;12.750;2022-09-14T01:22:17;17.83;;;7.67;;
4375;SDS011;2202;50.866;12.750;2022-09-14T01:24:50;7.77;;;7.03;;
4375;SDS011;2202;50.866;12.750;2022-09-14T01:27:26;8.97;;;6.97;;
4375;SDS011;2202;50.866;12.750;2022-09-14T01:30:00;8.40;;;7.00;;
4375;SDS011;2202;50.866;12.750;2022-09-14T01:32:30;8.00;;;7.20;;
4375;SDS011;2202;50.866;12.750;2022-09-14T01:35:02;9.17;;;7.40;;
4375;SDS011;2202;50.866;12.750;2022-09-14T01:37:34;8.97;;;7.90;;
4375;SDS011;2202;50.866;12.750;2022-09-14T01:40:06;10.53;;;8.53;;
4375;SDS011;2202;50.866;12.750;2022-09-14T01:42:41;7.87;;;6.80;;
4375;SDS011;2202;50.866;12.750;2022-09-14T01:45:14;8.00;;;7.20;;
4375;SDS011;2202;50.866;12.750;2022-09-14T01:47:44;8.30;;;7.27;;
4375;SDS011;2202;50.866;12.750;2022-09-14T01:50:15;7.80;;;7.00;;
4375;SDS011;2202;50.866;12.750;2022-09-14T01:52:47;13.47;;;8.70;;
4375;SDS011;2202;50.866;12.750;2022-09-14T01:55:19;11.43;;;7.90;;
4375;SDS011;2202;50.866;12.750;2022-09-14T01:57:52;7.53;;;6.73;;
4375;SDS011;2202;50.866;12.750;2022-09-14T02:00:23;9.37;;;7.40;;
4375;SDS011;2202;50.866;12.750;2022-09-14T02:02:51;9.97;;;8.17;;
4375;SDS011;2202;50.866;12.750;2022-09-14T02:05:22;8.50;;;7.17;;
4375;SDS011;2202;50.866;12.750;2022-09-14T02:07:53;10.47;;;7.50;;
4375;SDS011;2202;50.866;12.750;2022-09-14T02:10:21;8.90;;;7.20;;
4375;SDS011;2202;50.866;12.750;2022-09-14T02:12:48;9.70;;;8.50;;
4375;SDS011;2202;50.866;12.750;2022-09-14T02:15:17;9.87;;;7.40;;
4375;SDS011;2202;50.866;12.750;2022-09-14T02:17:44;11.70;;;7.43;;
4375;SDS011;2202;50.866;12.750;2022-09-14T02:20:14;10.73;;;8.00;;
4375;SDS011;2202;50.866;12.750;2022-09-14T02:22:46;10.37;;;7.93;;
4375;SDS011;2202;50.866;12.750;2022-09-14T02:25:15;10.43;;;7.60;;
4375;SDS011;2202;50.866;12.750;2022-09-14T02:27:42;12.67;;;8.77;;
4375;SDS011;2202;50.866;12.750;2022-09-14T02:30:11;8.27;;;7.20;;
4375;SDS011;2202;50.866;12.750;2022-09-14T02:32:41;9.33;;;8.00;;
4375;SDS011;2202;50.866;12.750;2022-09-14T02:35:20;10.90;;;8.03;;
4375;SDS011;2202;50.866;12.750;2022-09-14T02:37:53;10.10;;;8.60;;
4375;SDS011;2202;50.866;12.750;2022-09-14T02:40:29;10.83;;;9.57;;
4375;SDS011;2202;50.866;12.750;2022-09-14T02:43:03;9.20;;;8.30;;
4375;SDS011;2202;50.866;12.750;2022-09-14T02:45:38;9.47;;;8.07;;
4375;SDS011;2202;50.866;12.750;2022-09-14T02:48:14;10.10;;;8.87;;
4375;SDS011;2202;50.866;12.750;2022-09-14T02:50:48;13.13;;;8.80;;
4375;SDS011;2202;50.866;12.750;2022-09-14T02:53:19;10.70;;;8.73;;
4375;SDS011;2202;50.866;12.750;2022-09-14T02:55:51;11.30;;;10.10;;
4375;SDS011;2202;50.866;12.750;2022-09-14T02:58:23;13.00;;;9.10;;
4375;SDS011;2202;50.866;12.750;2022-09-14T03:00:50;11.00;;;9.30;;
4375;SDS011;2202;50.866;12.750;2022-09-14T03:03:19;12.37;;;9.70;;
4375;SDS011;2202;50.866;12.750;2022-09-14T03:05:46;10.27;;;9.17;;
4375;SDS011;2202;50.866;12.750;2022-09-14T03:08:13;9.70;;;8.70;;
4375;SDS011;2202;50.866;12.750;2022-09-14T03:10:41;12.93;;;9.40;;
4375;SDS011;2202;50.866;12.750;2022-09-14T03:13:09;11.37;;;8.30;;
4375;SDS011;2202;50.866;12.750;2022-09-14T03:15:36;12.80;;;8.50;;
4375;SDS011;2202;50.866;12.750;2022-09-14T03:18:04;11.83;;;10.13;;
4375;SDS011;2202;50.866;12.750;2022-09-14T03:20:33;11.53;;;9.60;;
4375;SDS011;2202;50.866;12.750;2022-09-14T03:23:00;12.13;;;10.33;;
4375;SDS011;2202;50.866;12.750;2022-09-14T03:25:29;11.10;;;8.70;;
4375;SDS011;2202;50.866;12.750;2022-09-14T03:27:57;11.53;;;8.70;;
4375;SDS011;2202;50.866;12.750;2022-09-14T03:30:25;9.83;;;8.80;;
4375;SDS011;2202;50.866;12.750;2022-09-14T03:32:53;10.37;;;8.13;;
4375;SDS011;2202;50.866;12.750;2022-09-14T03:35:20;12.40;;;9.87;;
4375;SDS011;2202;50.866;12.750;2022-09-14T03:37:48;9.50;;;7.57;;
4375;SDS011;2202;50.866;12.750;2022-09-14T03:40:16;11.10;;;9.50;;
4375;SDS011;2202;50.866;12.750;2022-09-14T03:42:43;12.20;;;9.83;;
4375;SDS011;2202;50.866;12.750;2022-09-14T03:45:12;12.83;;;9.90;;
4375;SDS011;2202;50.866;12.750;2022-09-14T03:47:41;11.70;;;9.87;;
4375;SDS011;2202;50.866;12.750;2022-09-14T03:50:09;13.90;;;9.90;;
4375;SDS011;2202;50.866;12.750;2022-09-14T03:52:37;10.87;;;9.73;;
4375;SDS011;2202;50.866;12.750;2022-09-14T03:55:06;12.37;;;9.60;;
4375;SDS011;2202;50.866;12.750;2022-09-14T03:57:34;11.63;;;8.97;;
4375;SDS011;2202;50.866;12.750;2022-09-14T04:00:02;8.97;;;8.10;;
4375;SDS011;2202;50.866;12.750;2022-09-14T04:02:30;12.17;;;9.27;;
4375;SDS011;2202;50.866;12.750;2022-09-14T04:04:57;9.73;;;8.73;;
4375;SDS011;2202;50.866;12.750;2022-09-14T04:07:24;11.33;;;9.27;;
4375;SDS011;2202;50.866;12.750;2022-09-14T04:09:51;11.50;;;10.40;;
4375;SDS011;2202;50.866;12.750;2022-09-14T04:12:20;12.33;;;10.87;;
4375;SDS011;2202;50.866;12.750;2022-09-14T04:14:47;12.90;;;10.17;;
4375;SDS011;2202;50.866;12.750;2022-09-14T04:17:14;11.27;;;9.83;;
4375;SDS011;2202;50.866;12.750;2022-09-14T04:19:40;13.73;;;9.87;;
4375;SDS011;2202;50.866;12.750;2022-09-14T04:22:07;13.03;;;9.63;;
4375;SDS011;2202;50.866;12.750;2022-09-14T04:24:34;10.50;;;9.40;;
4375;SDS011;2202;50.866;12.750;2022-09-14T04:27:01;10.17;;;8.67;;
4375;SDS011;2202;50.866;12.750;2022-09-14T04:29:30;10.30;;;9.03;;
4375;SDS011;2202;50.866;12.750;2022-09-14T04:31:57;9.57;;;8.67;;
4375;SDS011;2202;50.866;12.750;2022-09-14T04:34:23;10.13;;;9.13;;
4375;SDS011;2202;50.866;12.750;2022-09-14T04:36:50;10.90;;;9.73;;
4375;SDS011;2202;50.866;12.750;2022-09-14T04:39:17;11.87;;;9.73;;
4375;SDS011;2202;50.866;12.750;2022-09-14T04:41:45;11.57;;;9.00;;
4375;SDS011;2202;50.866;12.750;2022-09-14T04:44:12;11.53;;;10.07;;
4375;SDS011;2202;50.866;12.750;2022-09-14T04:46:41;9.77;;;8.80;;
4375;SDS011;2202;50.866;12.750;2022-09-14T04:49:08;12.50;;;9.13;;
4375;SDS011;2202;50.866;12.750;2022-09-14T04:51:35;9.83;;;8.83;;
4375;SDS011;2202;50.866;12.750;2022-09-14T04:54:04;11.43;;;10.33;;
4375;SDS011;2202;50.866;12.750;2022-09-14T04:56:32;11.50;;;9.33;;
4375;SDS011;2202;50.866;12.750;2022-09-14T04:59:01;10.07;;;8.93;;
4375;SDS011;2202;50.866;12.750;2022-09-14T05:01:30;11.60;;;9.70;;
4375;SDS011;2202;50.866;12.750;2022-09-14T05:04:01;10.90;;;8.53;;
4375;SDS011;2202;50.866;12.750;2022-09-14T05:06:29;12.43;;;9.67;;
4375;SDS011;2202;50.866;12.750;2022-09-14T05:08:57;9.50;;;8.60;;
4375;SDS011;2202;50.866;12.750;2022-09-14T05:11:26;10.63;;;8.90;;
4375;SDS011;2202;50.866;12.750;2022-09-14T05:13:55;11.40;;;10.20;;
4375;SDS011;2202;50.866;12.750;2022-09-14T05:16:24;15.40;;;10.93;;
4375;SDS011;2202;50.866;12.750;2022-09-14T05:18:52;11.83;;;10.53;;
4375;SDS011;2202;50.866;12.750;2022-09-14T05:21:22;10.90;;;9.63;;
4375;SDS011;2202;50.866;12.750;2022-09-14T05:23:53;11.07;;;9.50;;
4375;SDS011;2202;50.866;12.750;2022-09-14T05:26:21;10.30;;;9.17;;
4375;SDS011;2202;50.866;12.750;2022-09-14T05:28:50;10.80;;;9.40;;
4375;SDS011;2202;50.866;12.750;2022-09-14T05:31:18;12.63;;;11.33;;
4375;SDS011;2202;50.866;12.750;2022-09-14T05:33:46;13.33;;;9.90;;
4375;SDS011;2202;50.866;12.750;2022-09-14T05:36:13;12.20;;;9.50;;
4375;SDS011;2202;50.866;12.750;2022-09-14T05:38:41;11.33;;;10.13;;
4375;SDS011;2202;50.866;12.750;2022-09-14T05:41:09;11.43;;;9.40;;
4375;SDS011;2202;50.866;12.750;2022-09-14T05:43:37;11.83;;;10.40;;
4375;SDS011;2202;50.866;12.750;2022-09-14T05:46:05;12.90;;;10.93;;
4375;SDS011;2202;50.866;12.750;2022-09-14T05:48:33;16.30;;;11.50;;
4375;SDS011;2202;50.866;12.750;2022-09-14T05:51:01;14.13;;;12.03;;
4375;SDS011;2202;50.866;12.750;2022-09-14T05:53:31;13.40;;;12.00;;
4375;SDS011;2202;50.866;12.750;2022-09-14T05:56:00;15.37;;;11.83;;
4375;SDS011;2202;50.866;12.750;2022-09-14T05:58:28;13.13;;;11.87;;
4375;SDS011;2202;50.866;12.750;2022-09-14T06:00:56;13.73;;;11.33;;
4375;SDS011;2202;50.866;12.750;2022-09-14T06:03:23;12.93;;;11.63;;
4375;SDS011;2202;50.866;12.750;2022-09-14T06:05:51;14.57;;;12.30;;
4375;SDS011;2202;50.866;12.750;2022-09-14T06:08:22;14.67;;;10.97;;
4375;SDS011;2202;50.866;12.750;2022-09-14T06:10:49;12.57;;;10.60;;
4375;SDS011;2202;50.866;12.750;2022-09-14T06:13:17;12.83;;;11.50;;
4375;SDS011;2202;50.866;12.750;2022-09-14T06:15:47;11.63;;;10.33;;
4375;SDS011;2202;50.866;12.750;2022-09-14T06:18:14;12.70;;;11.17;;
4375;SDS011;2202;50.866;12.750;2022-09-14T06:20:48;15.90;;;11.73;;
4375;SDS011;2202;50.866;12.750;2022-09-14T06:23:15;12.47;;;10.47;;
4375;SDS011;2202;50.866;12.750;2022-09-14T06:25:42;11.40;;;10.20;;
4375;SDS011;2202;50.866;12.750;2022-09-14T06:28:09;11.20;;;10.10;;
4375;SDS011;2202;50.866;12.750;2022-09-14T06:30:40;12.43;;;10.73;;
4375;SDS011;2202;50.866;12.750;2022-09-14T06:33:08;11.57;;;9.77;;
4375;SDS011;2202;50.866;12.750;2022-09-14T06:35:34;15.10;;;11.03;;
4375;SDS011;2202;50.866;12.750;2022-09-14T06:38:02;11.40;;;10.13;;
4375;SDS011;2202;50.866;12.750;2022-09-14T06:40:29;14.97;;;9.80;;
4375;SDS011;2202;50.866;12.750;2022-09-14T06:42:56;12.63;;;11.33;;
4375;SDS011;2202;50.866;12.750;2022-09-14T06:45:26;12.30;;;11.10;;
4375;SDS011;2202;50.866;12.750;2022-09-14T06:47:55;13.57;;;11.43;;
4375;SDS011;2202;50.866;12.750;2022-09-14T06:50:22;14.43;;;9.87;;
4375;SDS011;2202;50.866;12.750;2022-09-14T06:52:49;11.27;;;9.77;;
4375;SDS011;2202;50.866;12.750;2022-09-14T06:55:16;12.83;;;11.50;;
4375;SDS011;2202;50.866;12.750;2022-09-14T06:57:43;13.47;;;10.90;;
4375;SDS011;2202;50.866;12.750;2022-09-14T07:00:13;12.97;;;11.00;;
4375;SDS011;2202;50.866;12.750;2022-09-14T07:02:40;11.73;;;10.30;;
4375;SDS011;2202;50.866;12.750;2022-09-14T07:05:09;13.20;;;11.80;;
4375;SDS011;2202;50.866;12.750;2022-09-14T07:07:36;13.40;;;10.40;;
4375;SDS011;2202;50.866;12.750;2022-09-14T07:10:03;13.00;;;11.60;;
4375;SDS011;2202;50.866;12.750;2022-09-14T07:12:30;12.03;;;10.80;;
4375;SDS011;2202;50.866;12.750;2022-09-14T07:14:57;11.83;;;10.63;;
4375;SDS011;2202;50.866;12.750;2022-09-14T07:17:24;12.40;;;10.73;;
4375;SDS011;2202;50.866;12.750;2022-09-14T07:19:51;13.83;;;12.00;;
4375;SDS011;2202;50.866;12.750;2022-09-14T07:22:19;15.20;;;12.43;;
4375;SDS011;2202;50.866;12.750;2022-09-14T07:24:46;11.47;;;10.27;;
4375;SDS011;2202;50.866;12.750;2022-09-14T07:27:13;12.60;;;11.30;;
4375;SDS011;2202;50.866;12.750;2022-09-14T07:29:40;24.83;;;18.50;;
4375;SDS011;2202;50.866;12.750;2022-09-14T07:32:07;16.63;;;10.90;;
4375;SDS011;2202;50.866;12.750;2022-09-14T07:34:34;12.30;;;10.40;;
4375;SDS011;2202;50.866;12.750;2022-09-14T07:37:00;13.57;;;11.50;;
4375;SDS011;2202;50.866;12.750;2022-09-14T07:39:29;14.00;;;12.50;;
4375;SDS011;2202;50.866;12.750;2022-09-14T07:41:56;13.17;;;11.77;;
4375;SDS011;2202;50.866;12.750;2022-09-14T07:44:22;13.73;;;11.07;;
4375;SDS011;2202;50.866;12.750;2022-09-14T07:46:49;12.50;;;11.20;;
4375;SDS011;2202;50.866;12.750;2022-09-14T07:49:16;22.03;;;15.83;;
4375;SDS011;2202;50.866;12.750;2022-09-14T07:51:43;14.23;;;12.10;;
4375;SDS011;2202;50.866;12.750;2022-09-14T07:54:11;17.53;;;12.23;;
4375;SDS011;2202;50.866;12.750;2022-09-14T07:56:41;15.43;;;11.50;;
4375;SDS011;2202;50.866;12.750;2022-09-14T07:59:09;13.50;;;11.10;;
4375;SDS011;2202;50.866;12.750;2022-09-14T08:01:37;12.70;;;10.77;;
4375;SDS011;2202;50.866;12.750;2022-09-14T08:04:04;13.80;;;10.97;;
4375;SDS011;2202;50.866;12.750;2022-09-14T08:06:32;13.23;;;11.80;;
4375;SDS011;2202;50.866;12.750;2022-09-14T08:08:58;12.80;;;10.63;;
4375;SDS011;2202;50.866;12.750;2022-09-14T08:11:26;14.03;;;11.60;;
4375;SDS011;2202;50.866;12.750;2022-09-14T08:13:56;11.80;;;10.30;;
4375;SDS011;2202;50.866;12.750;2022-09-14T08:16:24;15.50;;;11.77;;
4375;SDS011;2202;50.866;12.750;2022-09-14T08:18:53;15.20;;;13.60;;
4375;SDS011;2202;50.866;12.750;2022-09-14T08:21:21;12.70;;;11.30;;
4375;SDS011;2202;50.866;12.750;2022-09-14T08:23:48;12.90;;;11.60;;
4375;SDS011;2202;50.866;12.750;2022-09-14T08:26:16;14.07;;;12.40;;
4375;SDS011;2202;50.866;12.750;2022-09-14T08:28:44;13.50;;;12.10;;
4375;SDS011;2202;50.866;12.750;2022-09-14T08:31:13;18.37;;;13.50;;
4375;SDS011;2202;50.866;12.750;2022-09-14T08:33:42;14.47;;;13.07;;
4375;SDS011;2202;50.866;12.750;2022-09-14T08:36:11;17.70;;;14.40;;
4375;SDS011;2202;50.866;12.750;2022-09-14T08:38:39;17.07;;;14.90;;
4375;SDS011;2202;50.866;12.750;2022-09-14T08:41:09;18.63;;;15.07;;
4375;SDS011;2202;50.866;12.750;2022-09-14T08:43:44;17.00;;;13.13;;
4375;SDS011;2202;50.866;12.750;2022-09-14T08:46:14;16.73;;;14.40;;
4375;SDS011;2202;50.866;12.750;2022-09-14T08:48:47;18.20;;;13.90;;
4375;SDS011;2202;50.866;12.750;2022-09-14T08:51:14;17.27;;;14.00;;
4375;SDS011;2202;50.866;12.750;2022-09-14T08:53:42;14.63;;;12.90;;
4375;SDS011;2202;50.866;12.750;2022-09-14T08:56:11;17.10;;;14.87;;
4375;SDS011;2202;50.866;12.750;2022-09-14T08:58:45;15.07;;;12.63;;
4375;SDS011;2202;50.866;12.750;2022-09-14T09:01:25;12.80;;;11.40;;
4375;SDS011;2202;50.866;12.750;2022-09-14T09:04:08;13.40;;;10.10;;
4375;SDS011;2202;50.866;12.750;2022-09-14T09:06:45;11.27;;;10.00;;
4375;SDS011;2202;50.866;12.750;2022-09-14T09:09:22;11.00;;;9.80;;
4375;SDS011;2202;50.866;12.750;2022-09-14T09:11:55;13.30;;;11.50;;
4375;SDS011;2202;50.866;12.750;2022-09-14T09:14:25;10.63;;;9.30;;
4375;SDS011;2202;50.866;12.750;2022-09-14T09:16:59;13.67;;;11.60;;
4375;SDS011;2202;50.866;12.750;2022-09-14T09:19:31;11.13;;;9.93;;
4375;SDS011;2202;50.866;12.750;2022-09-14T09:22:03;11.60;;;10.20;;
4375;SDS011;2202;50.866;12.750;2022-09-14T09:24:38;11.20;;;9.13;;
4375;SDS011;2202;50.866;12.750;2022-09-14T09:27:10;12.93;;;10.60;;
4375;SDS011;2202;50.866;12.750;2022-09-14T09:29:38;11.93;;;9.63;;
4375;SDS011;2202;50.866;12.750;2022-09-14T09:32:09;12.97;;;10.20;;
4375;SDS011;2202;50.866;12.750;2022-09-14T09:34:40;13.67;;;11.20;;
4375;SDS011;2202;50.866;12.750;2022-09-14T09:37:09;12.60;;;10.03;;
4375;SDS011;2202;50.866;12.750;2022-09-14T09:39:39;13.17;;;11.60;;
4375;SDS011;2202;50.866;12.750;2022-09-14T09:42:06;12.60;;;11.10;;
4375;SDS011;2202;50.866;12.750;2022-09-14T09:44:52;18.10;;;13.67;;
4375;SDS011;2202;50.866;12.750;2022-09-14T09:47:26;17.90;;;13.23;;
4375;SDS011;2202;50.866;12.750;2022-09-14T09:49:56;16.93;;;12.03;;
4375;SDS011;2202;50.866;12.750;2022-09-14T09:52:25;12.83;;;11.03;;
4375;SDS011;2202;50.866;12.750;2022-09-14T09:54:53;15.63;;;12.60;;
4375;SDS011;2202;50.866;12.750;2022-09-14T09:57:26;15.10;;;12.00;;
4375;SDS011;2202;50.866;12.750;2022-09-14T10:00:06;9.63;;;8.43;;
4375;SDS011;2202;50.866;12.750;2022-09-14T10:02:38;14.63;;;10.37;;
4375;SDS011;2202;50.866;12.750;2022-09-14T10:05:19;9.97;;;8.90;;
4375;SDS011;2202;50.866;12.750;2022-09-14T10:07:50;12.03;;;9.50;;
4375;SDS011;2202;50.866;12.750;2022-09-14T10:10:22;9.27;;;8.37;;
4375;SDS011;2202;50.866;12.750;2022-09-14T10:12:52;8.63;;;7.80;;
4375;SDS011;2202;50.866;12.750;2022-09-14T10:15:21;9.17;;;8.27;;
4375;SDS011;2202;50.866;12.750;2022-09-14T10:17:56;7.27;;;6.57;;
4375;SDS011;2202;50.866;12.750;2022-09-14T10:20:31;7.47;;;6.77;;
4375;SDS011;2202;50.866;12.750;2022-09-14T10:23:08;8.77;;;7.33;;
4375;SDS011;2202;50.866;12.750;2022-09-14T10:25:45;7.83;;;7.03;;
4375;SDS011;2202;50.866;12.750;2022-09-14T10:28:17;9.20;;;8.17;;
4375;SDS011;2202;50.866;12.750;2022-09-14T10:30:48;13.17;;;11.70;;
4375;SDS011;2202;50.866;12.750;2022-09-14T10:33:21;12.10;;;10.47;;
4375;SDS011;2202;50.866;12.750;2022-09-14T10:35:50;14.50;;;12.70;;
4375;SDS011;2202;50.866;12.750;2022-09-14T10:38:28;17.70;;;13.43;;
4375;SDS011;2202;50.866;12.750;2022-09-14T10:41:03;15.10;;;13.30;;
4375;SDS011;2202;50.866;12.750;2022-09-14T10:43:49;16.73;;;13.53;;
4375;SDS011;2202;50.866;12.750;2022-09-14T10:46:33;15.27;;;13.50;;
4375;SDS011;2202;50.866;12.750;2022-09-14T10:49:12;17.43;;;15.63;;
4375;SDS011;2202;50.866;12.750;2022-09-14T10:51:54;20.13;;;16.90;;
4375;SDS011;2202;50.866;12.750;2022-09-14T10:54:36;21.80;;;17.77;;
4375;SDS011;2202;50.866;12.750;2022-09-14T10:57:15;20.60;;;14.50;;
4375;SDS011;2202;50.866;12.750;2022-09-14T10:59:52;19.53;;;15.20;;
4375;SDS011;2202;50.866;12.750;2022-09-14T11:02:28;17.87;;;15.97;;
4375;SDS011;2202;50.866;12.750;2022-09-14T11:05:09;17.93;;;14.00;;
4375;SDS011;2202;50.866;12.750;2022-09-14T11:07:42;13.07;;;11.33;;
4375;SDS011;2202;50.866;12.750;2022-09-14T11:10:17;13.00;;;10.90;;
4375;SDS011;2202;50.866;12.750;2022-09-14T11:12:50;21.07;;;12.80;;
4375;SDS011;2202;50.866;12.750;2022-09-14T11:15:42;13.67;;;12.03;;
4375;SDS011;2202;50.866;12.750;2022-09-14T11:18:18;11.70;;;10.50;;
4375;SDS011;2202;50.866;12.750;2022-09-14T11:20:55;12.07;;;10.87;;
4375;SDS011;2202;50.866;12.750;2022-09-14T11:23:35;10.77;;;9.30;;
4375;SDS011;2202;50.866;12.750;2022-09-14T11:26:09;9.50;;;8.47;;
4375;SDS011;2202;50.866;12.750;2022-09-14T11:28:40;9.90;;;8.90;;
4375;SDS011;2202;50.866;12.750;2022-09-14T11:31:11;10.23;;;9.20;;
4375;SDS011;2202;50.866;12.750;2022-09-14T11:33:44;10.40;;;8.43;;
4375;SDS011;2202;50.866;12.750;2022-09-14T11:36:20;10.50;;;7.90;;
4375;SDS011;2202;50.866;12.750;2022-09-14T11:38:51;10.17;;;8.10;;
4375;SDS011;2202;50.866;12.750;2022-09-14T11:41:22;8.87;;;7.80;;
4375;SDS011;2202;50.866;12.750;2022-09-14T11:43:54;8.80;;;7.97;;
4375;SDS011;2202;50.866;12.750;2022-09-14T11:46:26;8.93;;;7.90;;
4375;SDS011;2202;50.866;12.750;2022-09-14T11:48:58;7.90;;;6.67;;
4375;SDS011;2202;50.866;12.750;2022-09-14T11:51:35;8.80;;;7.90;;
4375;SDS011;2202;50.866;12.750;2022-09-14T11:54:08;8.00;;;6.63;;
4375;SDS011;2202;50.866;12.750;2022-09-14T11:56:38;7.03;;;6.30;;
4375;SDS011;2202;50.866;12.750;2022-09-14T11:59:05;9.10;;;6.47;;
4375;SDS011;2202;50.866;12.750;2022-09-14T12:01:33;6.70;;;5.77;;
4375;SDS011;2202;50.866;12.750;2022-09-14T12:04:06;4.47;;;4.00;;
4375;SDS011;2202;50.866;12.750;2022-09-14T12:06:46;6.13;;;5.53;;
4375;SDS011;2202;50.866;12.750;2022-09-14T12:12:26;5.20;;;4.70;;
4375;SDS011;2202;50.866;12.750;2022-09-14T12:15:03;5.63;;;4.77;;
4375;SDS011;2202;50.866;12.750;2022-09-14T12:17:39;5.13;;;4.50;;
4375;SDS011;2202;50.866;12.750;2022-09-14T12:20:26;5.60;;;4.53;;
4375;SDS011;2202;50.866;12.750;2022-09-14T12:23:05;14.43;;;12.70;;
4375;SDS011;2202;50.866;12.750;2022-09-14T12:25:53;6.50;;;5.73;;
4375;SDS011;2202;50.866;12.750;2022-09-14T12:28:28;5.00;;;4.23;;
4375;SDS011;2202;50.866;12.750;2022-09-14T12:31:10;6.40;;;4.80;;
4375;SDS011;2202;50.866;12.750;2022-09-14T12:46:06;5.83;;;4.83;;
4375;SDS011;2202;50.866;12.750;2022-09-14T12:48:53;5.67;;;5.13;;
4375;SDS011;2202;50.866;12.750;2022-09-14T12:51:26;5.80;;;5.20;;
4375;SDS011;2202;50.866;12.750;2022-09-14T12:54:22;5.90;;;5.17;;
4375;SDS011;2202;50.866;12.750;2022-09-14T12:56:58;6.67;;;4.90;;
4375;SDS011;2202;50.866;12.750;2022-09-14T12:59:36;4.77;;;4.13;;
4375;SDS011;2202;50.866;12.750;2022-09-14T13:05:19;7.33;;;4.63;;
4375;SDS011;2202;50.866;12.750;2022-09-14T13:07:47;4.20;;;3.77;;
4375;SDS011;2202;50.866;12.750;2022-09-14T13:10:16;4.57;;;3.90;;
4375;SDS011;2202;50.866;12.750;2022-09-14T13:12:46;4.13;;;3.73;;
4375;SDS011;2202;50.866;12.750;2022-09-14T13:15:18;5.07;;;3.53;;
4375;SDS011;2202;50.866;12.750;2022-09-14T13:17:58;4.40;;;3.43;;
4375;SDS011;2202;50.866;12.750;2022-09-14T13:20:27;4.10;;;3.60;;
4375;SDS011;2202;50.866;12.750;2022-09-14T13:22:55;4.40;;;4.00;;
4375;SDS011;2202;50.866;12.750;2022-09-14T13:25:26;4.43;;;3.77;;
4375;SDS011;2202;50.866;12.750;2022-09-14T13:27:56;3.60;;;3.30;;
4375;SDS011;2202;50.866;12.750;2022-09-14T13:30:25;6.50;;;3.97;;
4375;SDS011;2202;50.866;12.750;2022-09-14T13:32:54;5.27;;;4.00;;
4375;SDS011;2202;50.866;12.750;2022-09-14T13:35:26;5.27;;;4.70;;
4375;SDS011;2202;50.866;12.750;2022-09-14T13:37:56;6.07;;;5.10;;
4375;SDS011;2202;50.866;12.750;2022-09-14T13:40:24;5.57;;;4.57;;
4375;SDS011;2202;50.866;12.750;2022-09-14T13:42:53;6.40;;;5.70;;
4375;SDS011;2202;50.866;12.750;2022-09-14T13:45:21;7.53;;;6.73;;
4375;SDS011;2202;50.866;12.750;2022-09-14T13:47:49;7.57;;;6.77;;
4375;SDS011;2202;50.866;12.750;2022-09-14T13:50:17;10.63;;;9.20;;
4375;SDS011;2202;50.866;12.750;2022-09-14T13:52:46;19.47;;;13.83;;
4375;SDS011;2202;50.866;12.750;2022-09-14T13:55:16;18.23;;;14.67;;
4375;SDS011;2202;50.866;12.750;2022-09-14T14:00:45;13.60;;;11.30;;
4375;SDS011;2202;50.866;12.750;2022-09-14T14:03:22;13.30;;;10.40;;
4375;SDS011;2202;50.866;12.750;2022-09-14T14:05:53;11.37;;;10.17;;
4375;SDS011;2202;50.866;12.750;2022-09-14T14:08:25;12.67;;;10.90;;
4375;SDS011;2202;50.866;12.750;2022-09-14T14:10:55;11.77;;;10.57;;
4375;SDS011;2202;50.866;12.750;2022-09-14T14:13:23;12.80;;;11.40;;
4375;SDS011;2202;50.866;12.750;2022-09-14T14:15:51;13.50;;;12.07;;
4375;SDS011;2202;50.866;12.750;2022-09-14T14:18:28;15.07;;;11.80;;
4375;SDS011;2202;50.866;12.750;2022-09-14T14:21:04;12.20;;;11.00;;
4375;SDS011;2202;50.866;12.750;2022-09-14T14:23:40;11.87;;;10.60;;
4375;SDS011;2202;50.866;12.750;2022-09-14T14:26:08;13.13;;;11.20;;
4375;SDS011;2202;50.866;12.750;2022-09-14T14:28:39;13.17;;;11.73;;
4375;SDS011;2202;50.866;12.750;2022-09-14T14:31:11;16.30;;;11.43;;
4375;SDS011;2202;50.866;12.750;2022-09-14T14:33:43;13.13;;;10.87;;
4375;SDS011;2202;50.866;12.750;2022-09-14T14:36:11;13.87;;;12.43;;
4375;SDS011;2202;50.866;12.750;2022-09-14T14:38:40;12.80;;;11.40;;
4375;SDS011;2202;50.866;12.750;2022-09-14T14:41:09;12.40;;;11.10;;
4375;SDS011;2202;50.866;12.750;2022-09-14T14:43:40;10.07;;;8.70;;
4375;SDS011;2202;50.866;12.750;2022-09-14T14:46:10;12.63;;;10.03;;
4375;SDS011;2202;50.866;12.750;2022-09-14T14:48:38;11.63;;;10.07;;
4375;SDS011;2202;50.866;12.750;2022-09-14T14:51:08;12.83;;;10.53;;
4375;SDS011;2202;50.866;12.750;2022-09-14T14:53:37;12.03;;;10.73;;
4375;SDS011;2202;50.866;12.750;2022-09-14T14:56:06;12.40;;;10.57;;
4375;SDS011;2202;50.866;12.750;2022-09-14T14:58:40;12.30;;;10.57;;
4375;SDS011;2202;50.866;12.750;2022-09-14T15:01:09;14.17;;;12.67;;
4375;SDS011;2202;50.866;12.750;2022-09-14T15:03:36;14.00;;;12.43;;
4375;SDS011;2202;50.866;12.750;2022-09-14T15:06:09;13.90;;;11.70;;
4375;SDS011;2202;50.866;12.750;2022-09-14T15:08:40;14.63;;;12.10;;
4375;SDS011;2202;50.866;12.750;2022-09-14T15:11:08;14.20;;;11.97;;
4375;SDS011;2202;50.866;12.750;2022-09-14T15:13:39;13.90;;;11.80;;
4375;SDS011;2202;50.866;12.750;2022-09-14T15:16:06;16.20;;;13.40;;
4375;SDS011;2202;50.866;12.750;2022-09-14T15:18:33;12.90;;;9.80;;
4375;SDS011;2202;50.866;12.750;2022-09-14T15:21:00;10.20;;;8.00;;
4375;SDS011;2202;50.866;12.750;2022-09-14T15:23:27;9.13;;;7.47;;
4375;SDS011;2202;50.866;12.750;2022-09-14T15:25:55;8.47;;;7.67;;
4375;SDS011;2202;50.866;12.750;2022-09-14T15:28:22;7.93;;;7.13;;